sensor_id;sensor_type;location;lat;lon;timestamp;P1;durP1;ratioP1;P2;durP2;ratioP2
69822;SDS011;57119;52.516;13.508;2022-12-17T00:01:51;78.47;;;24.93;;
69822;SDS011;57119;52.516;13.508;2022-12-17T00:04:39;76.35;;;23.90;;
69822;SDS011;57119;52.516;13.508;2022-12-17T00:07:24;69.97;;;22.00;;
69822;SDS011;57119;52.516;13.508;2022-12-17T00:10:08;77.50;;;21.65;;
69822;SDS011;57119;52.516;13.508;2022-12-17T00:12:51;68.40;;;21.05;;
69822;SDS011;57119;52.516;13.508;2022-12-17T00:15:35;59.93;;;19.90;;
69822;SDS011;57119;52.516;13.508;2022-12-17T00:18:19;66.13;;;19.75;;
69822;SDS011;57119;52.516;13.508;2022-12-17T00:21:04;61.33;;;18.73;;
69822;SDS011;57119;52.516;13.508;2022-12-17T00:23:49;57.28;;;17.17;;
69822;SDS011;57119;52.516;13.508;2022-12-17T00:26:33;57.30;;;18.23;;
69822;SDS011;57119;52.516;13.508;2022-12-17T00:29:18;56.47;;;18.03;;
69822;SDS011;57119;52.516;13.508;2022-12-17T00:32:02;58.83;;;18.05;;
69822;SDS011;57119;52.516;13.508;2022-12-17T00:35:03;57.08;;;18.50;;
69822;SDS011;57119;52.516;13.508;2022-12-17T00:37:47;57.85;;;17.30;;
69822;SDS011;57119;52.516;13.508;2022-12-17T00:40:31;67.32;;;18.27;;
69822;SDS011;57119;52.516;13.508;2022-12-17T00:43:15;57.87;;;17.43;;
69822;SDS011;57119;52.516;13.508;2022-12-17T00:45:59;64.20;;;18.25;;
69822;SDS011;57119;52.516;13.508;2022-12-17T00:48:53;62.78;;;18.00;;
69822;SDS011;57119;52.516;13.508;2022-12-17T00:51:37;59.45;;;18.25;;
69822;SDS011;57119;52.516;13.508;2022-12-17T00:54:21;61.75;;;17.73;;
69822;SDS011;57119;52.516;13.508;2022-12-17T00:57:05;63.90;;;18.80;;
69822;SDS011;57119;52.516;13.508;2022-12-17T00:59:49;78.40;;;20.75;;
69822;SDS011;57119;52.516;13.508;2022-12-17T01:02:33;71.55;;;18.58;;
69822;SDS011;57119;52.516;13.508;2022-12-17T01:05:17;68.05;;;20.70;;
69822;SDS011;57119;52.516;13.508;2022-12-17T01:08:08;67.50;;;19.27;;
69822;SDS011;57119;52.516;13.508;2022-12-17T01:11:00;64.60;;;17.43;;
69822;SDS011;57119;52.516;13.508;2022-12-17T01:13:46;63.67;;;17.17;;
69822;SDS011;57119;52.516;13.508;2022-12-17T01:16:30;61.90;;;18.65;;
69822;SDS011;57119;52.516;13.508;2022-12-17T01:19:15;65.75;;;17.73;;
69822;SDS011;57119;52.516;13.508;2022-12-17T01:21:59;61.80;;;18.65;;
69822;SDS011;57119;52.516;13.508;2022-12-17T01:24:43;65.87;;;17.23;;
69822;SDS011;57119;52.516;13.508;2022-12-17T01:27:26;66.85;;;18.80;;
69822;SDS011;57119;52.516;13.508;2022-12-17T01:30:10;61.13;;;17.52;;
69822;SDS011;57119;52.516;13.508;2022-12-17T01:33:06;64.18;;;18.33;;
69822;SDS011;57119;52.516;13.508;2022-12-17T01:35:55;55.50;;;15.93;;
69822;SDS011;57119;52.516;13.508;2022-12-17T01:38:40;64.93;;;18.27;;
69822;SDS011;57119;52.516;13.508;2022-12-17T01:41:25;55.67;;;16.48;;
69822;SDS011;57119;52.516;13.508;2022-12-17T01:47:29;66.25;;;18.67;;
69822;SDS011;57119;52.516;13.508;2022-12-17T01:50:20;64.38;;;17.55;;
69822;SDS011;57119;52.516;13.508;2022-12-17T01:53:31;72.10;;;18.63;;
69822;SDS011;57119;52.516;13.508;2022-12-17T01:56:18;72.47;;;19.75;;
69822;SDS011;57119;52.516;13.508;2022-12-17T01:59:04;63.42;;;17.33;;
69822;SDS011;57119;52.516;13.508;2022-12-17T02:01:50;63.28;;;17.75;;
69822;SDS011;57119;52.516;13.508;2022-12-17T02:04:33;57.40;;;18.13;;
69822;SDS011;57119;52.516;13.508;2022-12-17T02:13:18;62.80;;;18.75;;
69822;SDS011;57119;52.516;13.508;2022-12-17T02:16:23;60.65;;;16.38;;
69822;SDS011;57119;52.516;13.508;2022-12-17T02:22:47;60.67;;;16.37;;
69822;SDS011;57119;52.516;13.508;2022-12-17T02:28:34;53.15;;;15.77;;
69822;SDS011;57119;52.516;13.508;2022-12-17T02:31:20;56.47;;;16.88;;
69822;SDS011;57119;52.516;13.508;2022-12-17T02:34:05;55.40;;;17.70;;
69822;SDS011;57119;52.516;13.508;2022-12-17T02:36:49;64.67;;;17.37;;
69822;SDS011;57119;52.516;13.508;2022-12-17T02:39:33;48.75;;;15.07;;
69822;SDS011;57119;52.516;13.508;2022-12-17T02:42:17;56.78;;;16.88;;
69822;SDS011;57119;52.516;13.508;2022-12-17T02:45:02;59.90;;;16.58;;
69822;SDS011;57119;52.516;13.508;2022-12-17T02:47:47;57.38;;;16.63;;
69822;SDS011;57119;52.516;13.508;2022-12-17T02:50:31;55.27;;;15.87;;
69822;SDS011;57119;52.516;13.508;2022-12-17T02:53:15;60.45;;;16.20;;
69822;SDS011;57119;52.516;13.508;2022-12-17T02:56:02;50.30;;;15.93;;
69822;SDS011;57119;52.516;13.508;2022-12-17T02:58:46;50.38;;;14.93;;
69822;SDS011;57119;52.516;13.508;2022-12-17T03:01:30;49.10;;;15.82;;
69822;SDS011;57119;52.516;13.508;2022-12-17T03:04:14;45.43;;;14.47;;
69822;SDS011;57119;52.516;13.508;2022-12-17T03:06:58;47.80;;;14.70;;
69822;SDS011;57119;52.516;13.508;2022-12-17T03:09:42;47.78;;;15.35;;
69822;SDS011;57119;52.516;13.508;2022-12-17T03:12:26;43.63;;;13.60;;
69822;SDS011;57119;52.516;13.508;2022-12-17T03:15:10;49.25;;;14.75;;
69822;SDS011;57119;52.516;13.508;2022-12-17T03:17:54;47.23;;;13.77;;
69822;SDS011;57119;52.516;13.508;2022-12-17T03:20:38;53.90;;;15.20;;
69822;SDS011;57119;52.516;13.508;2022-12-17T03:23:22;47.88;;;14.13;;
69822;SDS011;57119;52.516;13.508;2022-12-17T03:26:06;50.05;;;15.30;;
69822;SDS011;57119;52.516;13.508;2022-12-17T03:28:50;55.22;;;14.68;;
69822;SDS011;57119;52.516;13.508;2022-12-17T03:31:34;47.13;;;13.73;;
69822;SDS011;57119;52.516;13.508;2022-12-17T03:34:17;44.35;;;13.75;;
69822;SDS011;57119;52.516;13.508;2022-12-17T03:37:01;50.28;;;14.93;;
69822;SDS011;57119;52.516;13.508;2022-12-17T03:39:45;45.25;;;13.00;;
69822;SDS011;57119;52.516;13.508;2022-12-17T03:42:29;50.88;;;13.82;;
69822;SDS011;57119;52.516;13.508;2022-12-17T03:45:33;43.27;;;14.03;;
69822;SDS011;57119;52.516;13.508;2022-12-17T03:48:17;45.30;;;14.00;;
69822;SDS011;57119;52.516;13.508;2022-12-17T03:51:01;44.95;;;12.63;;
69822;SDS011;57119;52.516;13.508;2022-12-17T03:53:45;48.72;;;13.95;;
69822;SDS011;57119;52.516;13.508;2022-12-17T03:56:30;50.20;;;14.68;;
69822;SDS011;57119;52.516;13.508;2022-12-17T03:59:14;45.83;;;13.00;;
69822;SDS011;57119;52.516;13.508;2022-12-17T04:01:58;46.58;;;14.30;;
69822;SDS011;57119;52.516;13.508;2022-12-17T04:04:42;41.95;;;13.65;;
69822;SDS011;57119;52.516;13.508;2022-12-17T04:07:26;42.83;;;12.38;;
69822;SDS011;57119;52.516;13.508;2022-12-17T04:10:10;46.00;;;14.07;;
69822;SDS011;57119;52.516;13.508;2022-12-17T04:12:55;43.27;;;13.20;;
69822;SDS011;57119;52.516;13.508;2022-12-17T04:15:39;41.70;;;11.75;;
69822;SDS011;57119;52.516;13.508;2022-12-17T04:18:23;43.78;;;13.27;;
69822;SDS011;57119;52.516;13.508;2022-12-17T04:21:07;49.33;;;13.43;;
69822;SDS011;57119;52.516;13.508;2022-12-17T04:23:51;40.28;;;11.85;;
69822;SDS011;57119;52.516;13.508;2022-12-17T04:26:35;45.53;;;12.70;;
69822;SDS011;57119;52.516;13.508;2022-12-17T04:29:19;38.40;;;13.15;;
69822;SDS011;57119;52.516;13.508;2022-12-17T04:32:03;45.22;;;12.95;;
69822;SDS011;57119;52.516;13.508;2022-12-17T04:34:47;46.38;;;13.93;;
69822;SDS011;57119;52.516;13.508;2022-12-17T04:37:31;39.58;;;12.38;;
69822;SDS011;57119;52.516;13.508;2022-12-17T04:40:15;40.93;;;12.00;;
69822;SDS011;57119;52.516;13.508;2022-12-17T04:43:08;38.00;;;12.23;;
69822;SDS011;57119;52.516;13.508;2022-12-17T04:45:54;40.00;;;12.20;;
69822;SDS011;57119;52.516;13.508;2022-12-17T04:48:38;45.42;;;14.55;;
69822;SDS011;57119;52.516;13.508;2022-12-17T04:51:22;52.25;;;14.88;;
69822;SDS011;57119;52.516;13.508;2022-12-17T04:54:06;44.47;;;13.10;;
69822;SDS011;57119;52.516;13.508;2022-12-17T04:56:50;48.85;;;14.13;;
69822;SDS011;57119;52.516;13.508;2022-12-17T04:59:34;52.42;;;14.13;;
69822;SDS011;57119;52.516;13.508;2022-12-17T05:02:18;43.72;;;13.43;;
69822;SDS011;57119;52.516;13.508;2022-12-17T05:05:02;44.50;;;13.93;;
69822;SDS011;57119;52.516;13.508;2022-12-17T05:07:46;41.43;;;13.33;;
69822;SDS011;57119;52.516;13.508;2022-12-17T05:10:30;43.33;;;12.88;;
69822;SDS011;57119;52.516;13.508;2022-12-17T05:13:14;43.80;;;13.40;;
69822;SDS011;57119;52.516;13.508;2022-12-17T05:15:58;43.03;;;13.00;;
69822;SDS011;57119;52.516;13.508;2022-12-17T05:18:43;44.25;;;13.57;;
69822;SDS011;57119;52.516;13.508;2022-12-17T05:21:27;44.77;;;14.27;;
69822;SDS011;57119;52.516;13.508;2022-12-17T05:24:11;38.90;;;13.23;;
69822;SDS011;57119;52.516;13.508;2022-12-17T05:26:55;41.42;;;14.25;;
69822;SDS011;57119;52.516;13.508;2022-12-17T05:29:39;44.80;;;12.90;;
69822;SDS011;57119;52.516;13.508;2022-12-17T05:32:23;42.70;;;12.25;;
69822;SDS011;57119;52.516;13.508;2022-12-17T05:35:07;43.33;;;11.50;;
69822;SDS011;57119;52.516;13.508;2022-12-17T05:37:51;49.28;;;13.27;;
69822;SDS011;57119;52.516;13.508;2022-12-17T05:40:35;46.50;;;13.35;;
69822;SDS011;57119;52.516;13.508;2022-12-17T05:43:19;43.35;;;12.23;;
69822;SDS011;57119;52.516;13.508;2022-12-17T05:46:03;46.60;;;12.77;;
69822;SDS011;57119;52.516;13.508;2022-12-17T05:48:48;45.13;;;13.47;;
69822;SDS011;57119;52.516;13.508;2022-12-17T05:51:32;40.78;;;13.45;;
69822;SDS011;57119;52.516;13.508;2022-12-17T05:54:16;44.13;;;14.00;;
69822;SDS011;57119;52.516;13.508;2022-12-17T05:57:00;42.20;;;12.98;;
69822;SDS011;57119;52.516;13.508;2022-12-17T06:00:04;43.80;;;12.23;;
69822;SDS011;57119;52.516;13.508;2022-12-17T06:02:55;35.80;;;12.77;;
69822;SDS011;57119;52.516;13.508;2022-12-17T06:05:40;44.75;;;14.02;;
69822;SDS011;57119;52.516;13.508;2022-12-17T06:08:24;42.65;;;13.18;;
69822;SDS011;57119;52.516;13.508;2022-12-17T06:11:08;47.80;;;14.60;;
69822;SDS011;57119;52.516;13.508;2022-12-17T06:13:52;45.63;;;14.65;;
69822;SDS011;57119;52.516;13.508;2022-12-17T06:16:35;51.83;;;15.23;;
69822;SDS011;57119;52.516;13.508;2022-12-17T06:19:20;41.70;;;13.07;;
69822;SDS011;57119;52.516;13.508;2022-12-17T06:22:03;48.90;;;14.15;;
69822;SDS011;57119;52.516;13.508;2022-12-17T06:24:47;43.80;;;13.05;;
69822;SDS011;57119;52.516;13.508;2022-12-17T06:27:31;43.63;;;14.50;;
69822;SDS011;57119;52.516;13.508;2022-12-17T06:30:15;45.57;;;14.40;;
69822;SDS011;57119;52.516;13.508;2022-12-17T06:33:06;53.00;;;15.93;;
69822;SDS011;57119;52.516;13.508;2022-12-17T06:35:52;50.97;;;14.35;;
69822;SDS011;57119;52.516;13.508;2022-12-17T06:38:37;46.05;;;15.02;;
69822;SDS011;57119;52.516;13.508;2022-12-17T06:41:21;44.05;;;14.75;;
69822;SDS011;57119;52.516;13.508;2022-12-17T06:44:05;46.20;;;14.53;;
69822;SDS011;57119;52.516;13.508;2022-12-17T06:46:48;52.38;;;16.23;;
69822;SDS011;57119;52.516;13.508;2022-12-17T06:49:32;43.83;;;14.77;;
69822;SDS011;57119;52.516;13.508;2022-12-17T06:52:16;43.63;;;14.00;;
69822;SDS011;57119;52.516;13.508;2022-12-17T06:55:00;43.13;;;14.52;;
69822;SDS011;57119;52.516;13.508;2022-12-17T06:57:44;38.80;;;12.97;;
69822;SDS011;57119;52.516;13.508;2022-12-17T07:00:28;46.83;;;14.85;;
69822;SDS011;57119;52.516;13.508;2022-12-17T07:03:14;44.53;;;14.07;;
69822;SDS011;57119;52.516;13.508;2022-12-17T07:06:00;48.80;;;14.85;;
69822;SDS011;57119;52.516;13.508;2022-12-17T07:08:45;38.75;;;12.35;;
69822;SDS011;57119;52.516;13.508;2022-12-17T07:11:29;41.80;;;13.43;;
69822;SDS011;57119;52.516;13.508;2022-12-17T07:14:13;45.72;;;14.73;;
69822;SDS011;57119;52.516;13.508;2022-12-17T07:16:57;42.03;;;14.32;;
69822;SDS011;57119;52.516;13.508;2022-12-17T07:19:41;42.97;;;12.18;;
69822;SDS011;57119;52.516;13.508;2022-12-17T07:22:25;43.90;;;14.68;;
69822;SDS011;57119;52.516;13.508;2022-12-17T07:25:09;51.37;;;18.13;;
69822;SDS011;57119;52.516;13.508;2022-12-17T07:27:56;60.72;;;20.52;;
69822;SDS011;57119;52.516;13.508;2022-12-17T07:30:40;41.63;;;14.25;;
69822;SDS011;57119;52.516;13.508;2022-12-17T07:33:24;39.10;;;13.05;;
69822;SDS011;57119;52.516;13.508;2022-12-17T07:36:08;42.80;;;14.60;;
69822;SDS011;57119;52.516;13.508;2022-12-17T07:38:52;45.77;;;15.03;;
69822;SDS011;57119;52.516;13.508;2022-12-17T07:41:36;48.55;;;15.98;;
69822;SDS011;57119;52.516;13.508;2022-12-17T07:44:19;45.13;;;15.48;;
69822;SDS011;57119;52.516;13.508;2022-12-17T07:47:03;45.63;;;15.02;;
69822;SDS011;57119;52.516;13.508;2022-12-17T07:49:47;43.88;;;14.00;;
69822;SDS011;57119;52.516;13.508;2022-12-17T07:52:31;43.47;;;15.20;;
69822;SDS011;57119;52.516;13.508;2022-12-17T07:55:15;47.33;;;14.93;;
69822;SDS011;57119;52.516;13.508;2022-12-17T07:58:03;50.47;;;15.73;;
69822;SDS011;57119;52.516;13.508;2022-12-17T08:00:48;48.92;;;15.50;;
69822;SDS011;57119;52.516;13.508;2022-12-17T08:03:32;46.65;;;15.85;;
69822;SDS011;57119;52.516;13.508;2022-12-17T08:06:16;51.37;;;16.20;;
69822;SDS011;57119;52.516;13.508;2022-12-17T08:09:00;50.08;;;15.75;;
69822;SDS011;57119;52.516;13.508;2022-12-17T08:11:44;45.10;;;15.40;;
69822;SDS011;57119;52.516;13.508;2022-12-17T08:14:28;71.60;;;25.42;;
69822;SDS011;57119;52.516;13.508;2022-12-17T08:17:13;43.00;;;15.20;;
69822;SDS011;57119;52.516;13.508;2022-12-17T08:19:57;44.93;;;14.93;;
69822;SDS011;57119;52.516;13.508;2022-12-17T08:22:41;40.35;;;14.18;;
69822;SDS011;57119;52.516;13.508;2022-12-17T08:25:25;40.85;;;14.68;;
69822;SDS011;57119;52.516;13.508;2022-12-17T08:28:09;41.88;;;13.70;;
69822;SDS011;57119;52.516;13.508;2022-12-17T08:30:53;44.20;;;15.40;;
69822;SDS011;57119;52.516;13.508;2022-12-17T08:33:37;44.30;;;14.83;;
69822;SDS011;57119;52.516;13.508;2022-12-17T08:36:20;45.90;;;15.57;;
69822;SDS011;57119;52.516;13.508;2022-12-17T08:39:04;39.80;;;14.82;;
69822;SDS011;57119;52.516;13.508;2022-12-17T08:41:48;42.22;;;14.90;;
69822;SDS011;57119;52.516;13.508;2022-12-17T08:44:32;39.22;;;14.82;;
69822;SDS011;57119;52.516;13.508;2022-12-17T08:47:16;39.63;;;13.47;;
69822;SDS011;57119;52.516;13.508;2022-12-17T08:50:00;40.78;;;14.52;;
69822;SDS011;57119;52.516;13.508;2022-12-17T08:52:45;43.53;;;16.38;;
69822;SDS011;57119;52.516;13.508;2022-12-17T08:55:29;42.80;;;17.02;;
69822;SDS011;57119;52.516;13.508;2022-12-17T08:58:13;43.58;;;14.50;;
69822;SDS011;57119;52.516;13.508;2022-12-17T09:00:57;45.27;;;15.17;;
69822;SDS011;57119;52.516;13.508;2022-12-17T09:03:41;42.00;;;14.73;;
69822;SDS011;57119;52.516;13.508;2022-12-17T09:06:25;41.00;;;14.77;;
69822;SDS011;57119;52.516;13.508;2022-12-17T09:09:09;38.15;;;15.68;;
69822;SDS011;57119;52.516;13.508;2022-12-17T09:11:53;42.40;;;14.30;;
69822;SDS011;57119;52.516;13.508;2022-12-17T09:14:37;45.87;;;16.23;;
69822;SDS011;57119;52.516;13.508;2022-12-17T09:17:21;46.22;;;15.73;;
69822;SDS011;57119;52.516;13.508;2022-12-17T09:20:06;45.25;;;16.48;;
69822;SDS011;57119;52.516;13.508;2022-12-17T09:22:50;42.33;;;16.27;;
69822;SDS011;57119;52.516;13.508;2022-12-17T09:25:34;39.08;;;14.27;;
69822;SDS011;57119;52.516;13.508;2022-12-17T09:28:18;44.17;;;16.93;;
69822;SDS011;57119;52.516;13.508;2022-12-17T09:31:02;44.70;;;15.10;;
69822;SDS011;57119;52.516;13.508;2022-12-17T09:33:46;47.10;;;15.68;;
69822;SDS011;57119;52.516;13.508;2022-12-17T09:36:30;42.33;;;16.73;;
69822;SDS011;57119;52.516;13.508;2022-12-17T09:39:14;38.22;;;15.05;;
69822;SDS011;57119;52.516;13.508;2022-12-17T09:42:17;42.27;;;14.60;;
69822;SDS011;57119;52.516;13.508;2022-12-17T09:45:07;43.83;;;15.95;;
69822;SDS011;57119;52.516;13.508;2022-12-17T09:47:59;40.28;;;16.17;;
69822;SDS011;57119;52.516;13.508;2022-12-17T09:50:45;37.35;;;13.55;;
69822;SDS011;57119;52.516;13.508;2022-12-17T09:56:20;41.30;;;16.10;;
69822;SDS011;57119;52.516;13.508;2022-12-17T09:59:18;39.45;;;15.88;;
69822;SDS011;57119;52.516;13.508;2022-12-17T10:02:24;43.13;;;16.00;;
69822;SDS011;57119;52.516;13.508;2022-12-17T10:05:31;41.97;;;14.75;;
69822;SDS011;57119;52.516;13.508;2022-12-17T10:08:15;39.67;;;15.85;;
69822;SDS011;57119;52.516;13.508;2022-12-17T10:11:11;44.40;;;15.73;;
69822;SDS011;57119;52.516;13.508;2022-12-17T10:14:02;36.30;;;14.63;;
69822;SDS011;57119;52.516;13.508;2022-12-17T10:16:54;43.78;;;15.68;;
69822;SDS011;57119;52.516;13.508;2022-12-17T10:19:39;35.95;;;14.45;;
69822;SDS011;57119;52.516;13.508;2022-12-17T10:22:24;37.90;;;13.68;;
69822;SDS011;57119;52.516;13.508;2022-12-17T10:25:19;35.27;;;13.50;;
69822;SDS011;57119;52.516;13.508;2022-12-17T10:28:05;43.20;;;15.45;;
69822;SDS011;57119;52.516;13.508;2022-12-17T10:30:53;44.20;;;16.45;;
69822;SDS011;57119;52.516;13.508;2022-12-17T10:33:37;38.05;;;14.75;;
69822;SDS011;57119;52.516;13.508;2022-12-17T10:36:23;41.25;;;15.10;;
69822;SDS011;57119;52.516;13.508;2022-12-17T10:39:42;44.10;;;15.13;;
69822;SDS011;57119;52.516;13.508;2022-12-17T10:42:30;44.30;;;15.10;;
69822;SDS011;57119;52.516;13.508;2022-12-17T10:48:41;41.30;;;16.58;;
69822;SDS011;57119;52.516;13.508;2022-12-17T10:51:29;42.78;;;16.80;;
69822;SDS011;57119;52.516;13.508;2022-12-17T10:57:08;43.05;;;16.10;;
69822;SDS011;57119;52.516;13.508;2022-12-17T11:00:33;48.50;;;16.63;;
69822;SDS011;57119;52.516;13.508;2022-12-17T11:03:24;45.10;;;17.75;;
69822;SDS011;57119;52.516;13.508;2022-12-17T11:06:28;43.97;;;16.38;;
69822;SDS011;57119;52.516;13.508;2022-12-17T11:12:21;46.42;;;17.60;;
69822;SDS011;57119;52.516;13.508;2022-12-17T11:15:48;48.35;;;17.02;;
69822;SDS011;57119;52.516;13.508;2022-12-17T11:18:42;43.33;;;16.17;;
69822;SDS011;57119;52.516;13.508;2022-12-17T11:21:41;50.25;;;16.52;;
69822;SDS011;57119;52.516;13.508;2022-12-17T11:27:43;51.58;;;17.63;;
69822;SDS011;57119;52.516;13.508;2022-12-17T11:30:36;45.85;;;16.17;;
69822;SDS011;57119;52.516;13.508;2022-12-17T11:33:42;46.25;;;17.80;;
69822;SDS011;57119;52.516;13.508;2022-12-17T11:36:40;45.67;;;17.55;;
69822;SDS011;57119;52.516;13.508;2022-12-17T11:39:39;47.80;;;17.83;;
69822;SDS011;57119;52.516;13.508;2022-12-17T11:42:33;42.35;;;15.60;;
69822;SDS011;57119;52.516;13.508;2022-12-17T11:45:28;52.72;;;18.40;;
69822;SDS011;57119;52.516;13.508;2022-12-17T11:51:11;53.72;;;17.77;;
69822;SDS011;57119;52.516;13.508;2022-12-17T11:54:51;49.57;;;16.57;;
69822;SDS011;57119;52.516;13.508;2022-12-17T11:58:16;52.60;;;16.83;;
69822;SDS011;57119;52.516;13.508;2022-12-17T12:01:08;52.78;;;18.77;;
69822;SDS011;57119;52.516;13.508;2022-12-17T12:04:14;50.17;;;17.90;;
69822;SDS011;57119;52.516;13.508;2022-12-17T12:10:22;45.60;;;16.33;;
69822;SDS011;57119;52.516;13.508;2022-12-17T12:13:22;52.63;;;17.23;;
69822;SDS011;57119;52.516;13.508;2022-12-17T12:16:27;51.03;;;17.77;;
69822;SDS011;57119;52.516;13.508;2022-12-17T12:31:26;59.25;;;20.38;;
69822;SDS011;57119;52.516;13.508;2022-12-17T12:34:15;55.53;;;18.55;;
69822;SDS011;57119;52.516;13.508;2022-12-17T12:37:03;56.45;;;18.58;;
69822;SDS011;57119;52.516;13.508;2022-12-17T12:40:00;55.70;;;18.33;;
69822;SDS011;57119;52.516;13.508;2022-12-17T12:42:56;55.35;;;20.63;;
69822;SDS011;57119;52.516;13.508;2022-12-17T12:48:47;48.53;;;18.13;;
69822;SDS011;57119;52.516;13.508;2022-12-17T12:51:39;53.25;;;19.02;;
69822;SDS011;57119;52.516;13.508;2022-12-17T12:54:31;46.90;;;17.33;;
69822;SDS011;57119;52.516;13.508;2022-12-17T13:03:32;52.53;;;18.80;;
69822;SDS011;57119;52.516;13.508;2022-12-17T13:14:32;57.88;;;19.17;;
69822;SDS011;57119;52.516;13.508;2022-12-17T13:19:39;50.85;;;17.67;;
69822;SDS011;57119;52.516;13.508;2022-12-17T13:22:11;57.30;;;19.37;;
69822;SDS011;57119;52.516;13.508;2022-12-17T13:24:51;59.53;;;20.13;;
69822;SDS011;57119;52.516;13.508;2022-12-17T13:32:42;59.60;;;19.83;;
69822;SDS011;57119;52.516;13.508;2022-12-17T13:43:42;48.75;;;17.65;;
69822;SDS011;57119;52.516;13.508;2022-12-17T13:46:17;50.90;;;18.30;;
69822;SDS011;57119;52.516;13.508;2022-12-17T13:51:19;57.50;;;19.55;;
69822;SDS011;57119;52.516;13.508;2022-12-17T13:53:52;57.53;;;19.90;;
69822;SDS011;57119;52.516;13.508;2022-12-17T13:56:26;53.10;;;16.77;;
69822;SDS011;57119;52.516;13.508;2022-12-17T13:58:54;53.60;;;19.00;;
69822;SDS011;57119;52.516;13.508;2022-12-17T14:01:21;51.43;;;17.30;;
69822;SDS011;57119;52.516;13.508;2022-12-17T14:03:48;52.17;;;17.85;;
69822;SDS011;57119;52.516;13.508;2022-12-17T14:06:15;57.13;;;17.83;;
69822;SDS011;57119;52.516;13.508;2022-12-17T14:08:41;51.93;;;18.53;;
69822;SDS011;57119;52.516;13.508;2022-12-17T14:11:07;55.17;;;18.15;;
69822;SDS011;57119;52.516;13.508;2022-12-17T14:13:54;52.08;;;18.02;;
69822;SDS011;57119;52.516;13.508;2022-12-17T14:16:19;56.33;;;17.70;;
69822;SDS011;57119;52.516;13.508;2022-12-17T14:18:50;52.92;;;18.55;;
69822;SDS011;57119;52.516;13.508;2022-12-17T14:21:18;47.85;;;16.80;;
69822;SDS011;57119;52.516;13.508;2022-12-17T14:23:44;49.45;;;17.70;;
69822;SDS011;57119;52.516;13.508;2022-12-17T14:26:12;52.70;;;18.33;;
69822;SDS011;57119;52.516;13.508;2022-12-17T14:31:19;53.03;;;18.52;;
69822;SDS011;57119;52.516;13.508;2022-12-17T14:33:47;53.53;;;17.67;;
69822;SDS011;57119;52.516;13.508;2022-12-17T14:36:24;53.35;;;19.20;;
69822;SDS011;57119;52.516;13.508;2022-12-17T14:38:54;49.83;;;17.77;;
69822;SDS011;57119;52.516;13.508;2022-12-17T14:41:21;51.38;;;17.23;;
69822;SDS011;57119;52.516;13.508;2022-12-17T14:44:06;54.58;;;17.77;;
69822;SDS011;57119;52.516;13.508;2022-12-17T14:46:38;58.40;;;18.87;;
69822;SDS011;57119;52.516;13.508;2022-12-17T14:49:11;50.83;;;17.35;;
69822;SDS011;57119;52.516;13.508;2022-12-17T14:51:41;49.07;;;18.03;;
69822;SDS011;57119;52.516;13.508;2022-12-17T14:56:39;47.30;;;18.30;;
69822;SDS011;57119;52.516;13.508;2022-12-17T15:01:59;47.00;;;17.40;;
69822;SDS011;57119;52.516;13.508;2022-12-17T15:04:28;48.73;;;15.27;;
69822;SDS011;57119;52.516;13.508;2022-12-17T15:06:56;51.38;;;17.35;;
69822;SDS011;57119;52.516;13.508;2022-12-17T15:09:21;49.38;;;16.73;;
69822;SDS011;57119;52.516;13.508;2022-12-17T15:11:47;47.27;;;15.43;;
69822;SDS011;57119;52.516;13.508;2022-12-17T15:14:13;46.55;;;16.45;;
69822;SDS011;57119;52.516;13.508;2022-12-17T15:16:38;54.80;;;17.93;;
69822;SDS011;57119;52.516;13.508;2022-12-17T15:19:04;44.17;;;15.93;;
69822;SDS011;57119;52.516;13.508;2022-12-17T15:21:32;52.42;;;17.38;;
69822;SDS011;57119;52.516;13.508;2022-12-17T15:23:57;50.10;;;17.17;;
69822;SDS011;57119;52.516;13.508;2022-12-17T15:26:23;51.67;;;17.58;;
69822;SDS011;57119;52.516;13.508;2022-12-17T15:28:49;46.67;;;15.67;;
69822;SDS011;57119;52.516;13.508;2022-12-17T15:31:14;47.17;;;16.27;;
69822;SDS011;57119;52.516;13.508;2022-12-17T15:33:40;51.88;;;16.52;;
69822;SDS011;57119;52.516;13.508;2022-12-17T15:36:06;47.40;;;17.75;;
69822;SDS011;57119;52.516;13.508;2022-12-17T15:38:32;48.73;;;15.70;;
69822;SDS011;57119;52.516;13.508;2022-12-17T15:40:58;51.22;;;16.80;;
69822;SDS011;57119;52.516;13.508;2022-12-17T15:43:24;52.03;;;17.55;;
69822;SDS011;57119;52.516;13.508;2022-12-17T15:45:50;54.03;;;17.80;;
69822;SDS011;57119;52.516;13.508;2022-12-17T15:48:17;52.92;;;18.17;;
69822;SDS011;57119;52.516;13.508;2022-12-17T15:50:45;56.40;;;18.30;;
69822;SDS011;57119;52.516;13.508;2022-12-17T15:53:11;54.15;;;17.63;;
69822;SDS011;57119;52.516;13.508;2022-12-17T15:55:37;59.85;;;19.55;;
69822;SDS011;57119;52.516;13.508;2022-12-17T15:58:03;55.90;;;17.73;;
69822;SDS011;57119;52.516;13.508;2022-12-17T16:00:29;59.57;;;19.40;;
69822;SDS011;57119;52.516;13.508;2022-12-17T16:02:55;58.92;;;17.25;;
69822;SDS011;57119;52.516;13.508;2022-12-17T16:05:20;57.27;;;17.97;;
69822;SDS011;57119;52.516;13.508;2022-12-17T16:07:46;47.50;;;16.35;;
69822;SDS011;57119;52.516;13.508;2022-12-17T16:10:13;55.53;;;17.53;;
69822;SDS011;57119;52.516;13.508;2022-12-17T16:12:38;53.58;;;17.92;;
69822;SDS011;57119;52.516;13.508;2022-12-17T16:15:04;54.27;;;18.00;;
69822;SDS011;57119;52.516;13.508;2022-12-17T16:17:30;50.45;;;16.23;;
69822;SDS011;57119;52.516;13.508;2022-12-17T16:19:56;57.60;;;17.50;;
69822;SDS011;57119;52.516;13.508;2022-12-17T16:22:21;48.57;;;16.63;;
69822;SDS011;57119;52.516;13.508;2022-12-17T16:24:47;54.97;;;18.90;;
69822;SDS011;57119;52.516;13.508;2022-12-17T16:27:13;55.40;;;16.90;;
69822;SDS011;57119;52.516;13.508;2022-12-17T16:29:38;50.45;;;14.85;;
69822;SDS011;57119;52.516;13.508;2022-12-17T16:32:07;51.47;;;16.50;;
69822;SDS011;57119;52.516;13.508;2022-12-17T16:34:32;51.92;;;17.17;;
69822;SDS011;57119;52.516;13.508;2022-12-17T16:36:58;47.47;;;17.50;;
69822;SDS011;57119;52.516;13.508;2022-12-17T16:39:25;47.10;;;15.75;;
69822;SDS011;57119;52.516;13.508;2022-12-17T16:41:51;52.25;;;16.75;;
69822;SDS011;57119;52.516;13.508;2022-12-17T16:44:16;51.47;;;15.40;;
69822;SDS011;57119;52.516;13.508;2022-12-17T16:46:41;47.70;;;15.00;;
69822;SDS011;57119;52.516;13.508;2022-12-17T16:49:18;43.42;;;15.10;;
69822;SDS011;57119;52.516;13.508;2022-12-17T16:51:45;49.17;;;16.17;;
69822;SDS011;57119;52.516;13.508;2022-12-17T16:54:17;46.72;;;18.08;;
69822;SDS011;57119;52.516;13.508;2022-12-17T16:56:44;66.90;;;25.48;;
69822;SDS011;57119;52.516;13.508;2022-12-17T16:59:11;57.05;;;18.42;;
69822;SDS011;57119;52.516;13.508;2022-12-17T17:01:38;66.05;;;25.17;;
69822;SDS011;57119;52.516;13.508;2022-12-17T17:04:05;51.57;;;18.33;;
69822;SDS011;57119;52.516;13.508;2022-12-17T17:06:36;52.80;;;16.27;;
69822;SDS011;57119;52.516;13.508;2022-12-17T17:09:06;55.22;;;19.13;;
69822;SDS011;57119;52.516;13.508;2022-12-17T17:11:32;51.38;;;17.00;;